地図

経路データ

SID SEASON NUMBER BASIN SUBBASIN NAME ISO_TIME NATURE LAT LON WMO_WIND WMO_PRES WMO_AGENCY TRACK_TYPE DIST2LAND LANDFALL IFLAG USA_AGENCY USA_ATCF_ID USA_LAT USA_LON USA_RECORD USA_STATUS USA_WIND USA_PRES USA_SSHS USA_R34_NE USA_R34_SE USA_R34_SW USA_R34_NW USA_R50_NE USA_R50_SE USA_R50_SW USA_R50_NW USA_R64_NE USA_R64_SE USA_R64_SW USA_R64_NW USA_POCI USA_ROCI USA_RMW USA_EYE TOKYO_LAT TOKYO_LON TOKYO_GRADE TOKYO_WIND TOKYO_PRES TOKYO_R50_DIR TOKYO_R50_LONG TOKYO_R50_SHORT TOKYO_R30_DIR TOKYO_R30_LONG TOKYO_R30_SHORT TOKYO_LAND CMA_LAT CMA_LON CMA_CAT CMA_WIND CMA_PRES HKO_LAT HKO_LON HKO_CAT HKO_WIND HKO_PRES NEWDELHI_LAT NEWDELHI_LON NEWDELHI_GRADE NEWDELHI_WIND NEWDELHI_PRES NEWDELHI_CI NEWDELHI_DP NEWDELHI_POCI REUNION_LAT REUNION_LON REUNION_TYPE REUNION_WIND REUNION_PRES REUNION_TNUM REUNION_CI REUNION_RMW REUNION_R34_NE REUNION_R34_SE REUNION_R34_SW REUNION_R34_NW REUNION_R50_NE REUNION_R50_SE REUNION_R50_SW REUNION_R50_NW REUNION_R64_NE REUNION_R64_SE REUNION_R64_SW REUNION_R64_NW BOM_LAT BOM_LON BOM_TYPE BOM_WIND BOM_PRES BOM_TNUM BOM_CI BOM_RMW BOM_R34_NE BOM_R34_SE BOM_R34_SW BOM_R34_NW BOM_R50_NE BOM_R50_SE BOM_R50_SW BOM_R50_NW BOM_R64_NE BOM_R64_SE BOM_R64_SW BOM_R64_NW BOM_ROCI BOM_POCI BOM_EYE BOM_POS_METHOD BOM_PRES_METHOD NADI_LAT NADI_LON NADI_CAT NADI_WIND NADI_PRES WELLINGTON_LAT WELLINGTON_LON WELLINGTON_WIND WELLINGTON_PRES DS824_LAT DS824_LON DS824_STAGE DS824_WIND DS824_PRES TD9636_LAT TD9636_LON TD9636_STAGE TD9636_WIND TD9636_PRES TD9635_LAT TD9635_LON TD9635_WIND TD9635_PRES TD9635_ROCI NEUMANN_LAT NEUMANN_LON NEUMANN_CLASS NEUMANN_WIND NEUMANN_PRES MLC_LAT MLC_LON MLC_CLASS MLC_WIND MLC_PRES USA_GUST BOM_GUST BOM_GUST_PER REUNION_GUST REUNION_GUST_PER USA_SEAHGT USA_SEARAD_NE USA_SEARAD_SE USA_SEARAD_SW USA_SEARAD_NW STORM_SPEED STORM_DIR
1905192N21090 1905 25 NI BB NOT_NAMED 1905-07-11 00:00:00 TS 20.9000 89.7000 main 94 78 _________O____ -1 20.9000 89.7000 TC 30 4 300
1905192N21090 1905 25 NI BB NOT_NAMED 1905-07-11 03:00:00 TS 20.9951 89.5267 main 78 59 _________PO___ -1 21.0426 89.4401 TC 30 20.9000 89.7000 1 4 304
1905192N21090 1905 25 NI BB NOT_NAMED 1905-07-11 06:00:00 TS 21.1419 89.3125 main 59 33 _________OP___ -1 21.2000 89.2000 TC 30 21.0548 89.4813 1 5 309
1905192N21090 1905 25 NI BB NOT_NAMED 1905-07-11 09:00:00 TS 21.3132 89.1071 main 33 11 _________PP___ -1 21.3849 88.9924 TC 30 21.2176 89.2600 1 5 314
1905192N21090 1905 25 NI BB NOT_NAMED 1905-07-11 12:00:00 TS 21.4983 88.9168 main 11 0 _________OP___ -1 21.6000 88.8000 TC 30 21.3966 89.0336 1 6 318
1905192N21090 1905 25 NI BB NOT_NAMED 1905-07-11 15:00:00 TS 21.7250 88.7037 main 0 0 _________PO___ -1 21.8499 88.6075 TC 30 21.6000 88.8000 1 6 319
1905192N21090 1905 25 NI BB NOT_NAMED 1905-07-11 18:00:00 TS 21.9655 88.4795 main 0 0 _________OP___ -1 22.1000 88.4000 TC 30 21.8310 88.5590 1 6 317
1905192N21090 1905 25 NI BB NOT_NAMED 1905-07-11 21:00:00 TS 22.1976 88.2277 main 0 0 _________PP___ -1 22.3226 88.1351 TC 30 22.0726 88.3204 1 6 314
1905192N21090 1905 25 NI BB NOT_NAMED 1905-07-12 00:00:00 TS 22.4014 87.9983 main 0 0 _________OP___ -1 22.5000 87.9000 TC 30 22.3029 88.0965 1 5 315
1905192N21090 1905 25 NI BB NOT_NAMED 1905-07-12 03:00:00 TS 22.5575 87.8424 main 0 0 _________PO___ -1 22.6149 87.7849 TC 30 22.5000 87.9000 1 4 316
1905192N21090 1905 25 NI BB NOT_NAMED 1905-07-12 06:00:00 TS 22.6658 87.7229 main 0 0 _________OP___ -1 22.7000 87.7000 TC 30 22.6317 87.7458 1 3 312
1905192N21090 1905 25 NI BB NOT_NAMED 1905-07-12 09:00:00 TS 22.7649 87.5885 main 0 0 _________PP___ -1 22.8000 87.5575 TC 30 22.7298 87.6195 1 3 308
1905192N21090 1905 25 NI BB NOT_NAMED 1905-07-12 12:00:00 TS 22.8565 87.4542 main 0 0 _________OP___ -1 22.9000 87.4000 TC 30 22.8130 87.5084 1 3 306
1905192N21090 1905 25 NI BB NOT_NAMED 1905-07-12 15:00:00 TS 22.9463 87.3212 main 0 0 _________PO___ -1 22.9925 87.2425 TC 30 22.9000 87.4000 1 3 310
1905192N21090 1905 25 NI BB NOT_NAMED 1905-07-12 18:00:00 TS 23.0506 87.2035 main 0 0 _________OP___ -1 23.1000 87.1000 TC 30 23.0013 87.3070 1 3 320
1905192N21090 1905 25 NI BB NOT_NAMED 1905-07-12 21:00:00 TS 23.1697 87.1158 main 0 0 _________PP___ -1 23.2274 87.0223 TC 30 23.1120 87.2092 1 3 324
1905192N21090 1905 25 NI BB NOT_NAMED 1905-07-13 00:00:00 TS 23.3209 86.9909 main 0 0 _________OP___ -1 23.4000 86.9000 TC 30 23.2418 87.0818 1 5 318
1905192N21090 1905 25 NI BB NOT_NAMED 1905-07-13 03:00:00 TS 23.5213 86.7688 main 0 0 _________PO___ -1 23.6425 86.6376 TC 30 23.4000 86.9000 1 7 312
1905192N21090 1905 25 NI BB NOT_NAMED 1905-07-13 06:00:00 TS 23.7544 86.4645 main 0 0 _________OP___ -1 23.9000 86.3000 TC 30 23.6087 86.6290 1 7 308
1905192N21090 1905 25 NI BB NOT_NAMED 1905-07-13 09:00:00 TS 23.9790 86.1266 main 0 0 _________PP___ -1 24.1150 85.9500 TC 30 23.8429 86.3033 1 8 305
1905192N21090 1905 25 NI BB NOT_NAMED 1905-07-13 12:00:00 TS 24.1903 85.7754 main 0 0 _________OP___ -1 24.3000 85.6000 TC 30 24.0806 85.9508 1 7 303
1905192N21090 1905 25 NI BB NOT_NAMED 1905-07-13 15:00:00 TS 24.3787 85.4462 main 0 0 _________PO___ -1 24.4574 85.2923 TC 30 24.3000 85.6000 1 7 301
1905192N21090 1905 25 NI BB NOT_NAMED 1905-07-13 18:00:00 TS 24.5342 85.1563 main 0 0 _________OP___ -1 24.6000 85.0000 TC 30 24.4849 85.2735 1 6 300
1905192N21090 1905 25 NI BB NOT_NAMED 1905-07-13 21:00:00 TS 24.6831 84.8629 main 0 0 _________PP___ -1 24.7476 84.7027 TC 30 24.6400 84.9698 1 6 299
1905192N21090 1905 25 NI BB NOT_NAMED 1905-07-14 00:00:00 TS 24.8167 84.5875 main 0 0 _________OP___ -1 24.9000 84.4000 TC 30 24.7751 84.6812 1 5 297
1905192N21090 1905 25 NI BB NOT_NAMED 1905-07-14 03:00:00 NR 24.9000 84.4000 main 0 __________O___ -1 TC 24.9000 84.4000 1 4 297

IBTrACS Databaseについて

本データベースは、米国NOAAが公開する1842年以降の世界の熱帯低気圧のベストトラックデータアーカイブInternational Best Track Archive for Climate Stewardship (IBTrACS)を、ウェブで閲覧しやすい形式に変換したものです。

最終更新日:2021-12-03